createdAt,value
2023-04-02T00:00:11.350Z,99467.41
2023-04-02T00:03:22.441Z,99467.41
2023-04-02T00:06:33.329Z,99465.16
2023-04-02T00:09:37.349Z,99460.66
2023-04-02T00:12:40.111Z,99471.16
2023-04-02T00:15:45.532Z,99475.53
2023-04-02T00:18:55.669Z,99474.66
2023-04-02T00:21:59.395Z,99476.59
2023-04-02T00:25:08.923Z,99474.72
2023-04-02T00:28:19.726Z,99468.34
2023-04-02T00:31:23.517Z,99468.47
2023-04-02T00:34:37.904Z,99471.47
2023-04-02T00:37:42.390Z,99478.75
2023-04-02T00:40:46.448Z,99475.03
2023-04-02T00:43:54.776Z,99473.41
2023-04-02T00:46:58.150Z,99463.62
2023-04-02T00:50:23.134Z,99471.41
2023-04-02T00:53:28.593Z,99476.50
2023-04-02T00:56:41.241Z,99468.28
2023-04-02T00:59:54.832Z,99474.75
2023-04-02T01:03:17.830Z,99464.28
2023-04-02T01:06:21.187Z,99464.47
2023-04-02T01:09:47.247Z,99462.84
2023-04-02T01:13:07.790Z,99460.03
2023-04-02T01:16:26.096Z,99463.09
2023-04-02T01:19:54.028Z,99470.34
2023-04-02T01:23:13.564Z,99465.53
2023-04-02T01:26:28.591Z,99468.78
2023-04-02T01:29:34.352Z,99480.63
2023-04-02T01:32:37.621Z,99471.91
2023-04-02T01:35:43.823Z,99468.25
2023-04-02T01:38:54.141Z,99469.28
2023-04-02T01:42:09.937Z,99469.28
2023-04-02T01:45:18.050Z,99467.69
2023-04-02T01:48:27.603Z,99460.19
2023-04-02T01:51:34.968Z,99461.00
2023-04-02T01:54:38.141Z,99461.81
2023-04-02T01:57:42.834Z,99457.16
2023-04-02T02:00:52.490Z,99456.16
2023-04-02T02:03:55.935Z,99456.78
2023-04-02T02:07:02.364Z,99458.22
2023-04-02T02:10:05.821Z,99461.25
2023-04-02T02:13:14.998Z,99461.44
2023-04-02T02:16:18.379Z,99461.25
2023-04-02T02:19:37.655Z,99462.00
2023-04-02T02:22:46.681Z,99460.19
2023-04-02T02:25:49.755Z,99465.63
2023-04-02T02:28:55.648Z,99464.38
2023-04-02T02:31:59.404Z,99465.53
2023-04-02T02:35:06.907Z,99477.16
2023-04-02T02:38:26.394Z,99479.16
2023-04-02T02:41:35.929Z,99468.09
2023-04-02T02:44:42.789Z,99476.63
2023-04-02T02:47:46.059Z,99474.94
2023-04-02T02:50:49.971Z,99479.31
2023-04-02T02:54:02.256Z,99486.12
2023-04-02T02:57:08.548Z,99486.34
2023-04-02T03:00:12.097Z,99484.34
2023-04-02T03:03:22.349Z,99485.03
2023-04-02T03:06:25.591Z,99491.41
2023-04-02T03:09:52.490Z,99491.94
2023-04-02T03:13:02.578Z,99492.91
2023-04-02T03:16:26.540Z,99496.59
2023-04-02T03:19:39.145Z,99498.84
2023-04-02T03:22:47.502Z,99508.72
2023-04-02T03:26:08.625Z,99506.81
2023-04-02T03:29:18.319Z,99505.22
2023-04-02T03:32:24.409Z,99505.91
2023-04-02T03:35:58.857Z,99512.59
2023-04-02T03:39:06.831Z,99506.06
2023-04-02T03:42:30.915Z,99516.56
2023-04-02T03:45:40.867Z,99523.66
2023-04-02T03:48:50.513Z,99521.44
2023-04-02T03:51:55.664Z,99526.22
2023-04-02T03:55:00.568Z,99529.03
2023-04-02T03:58:19.400Z,99536.22
2023-04-02T04:01:34.764Z,99528.91
2023-04-02T04:04:41.020Z,99530.31
2023-04-02T04:07:44.241Z,99533.72
2023-04-02T04:10:52.111Z,99541.06
2023-04-02T04:14:03.648Z,99538.63
2023-04-02T04:17:14.280Z,99543.00
2023-04-02T04:20:22.318Z,99550.34
2023-04-02T04:23:37.105Z,99563.78
2023-04-02T04:26:42.197Z,99568.94
2023-04-02T04:29:52.056Z,99569.38
2023-04-02T04:33:02.232Z,99562.94
2023-04-02T04:36:05.521Z,99570.34
2023-04-02T04:39:21.885Z,99568.16
2023-04-02T04:42:27.849Z,99582.03
2023-04-02T04:45:43.875Z,99586.94
2023-04-02T04:49:05.705Z,99589.56
2023-04-02T04:52:19.737Z,99592.03
2023-04-02T04:55:42.966Z,99594.47
2023-04-02T04:58:57.335Z,99590.94
2023-04-02T05:05:31.499Z,99591.88
2023-04-02T05:08:36.820Z,99591.53
2023-04-02T05:11:46.366Z,99599.69
2023-04-02T05:14:57.742Z,99600.16
2023-04-02T05:18:27.514Z,99602.72
2023-04-02T05:21:45.084Z,99602.06
2023-04-02T05:25:03.058Z,99610.31
2023-04-02T05:28:31.104Z,99604.59
2023-04-02T05:31:59.181Z,99606.78
2023-04-02T05:35:05.677Z,99613.56
2023-04-02T05:38:08.546Z,99610.03
2023-04-02T05:41:42.487Z,99610.91
2023-04-02T05:45:00.971Z,99612.81
2023-04-02T05:48:12.536Z,99611.06
2023-04-02T05:51:21.330Z,99607.84
2023-04-02T05:54:30.540Z,99613.78
2023-04-02T05:57:45.850Z,99618.13
2023-04-02T06:01:03.053Z,99619.19
2023-04-02T06:04:08.034Z,99620.25
2023-04-02T06:07:16.043Z,99629.03
2023-04-02T06:10:26.345Z,99628.97
2023-04-02T06:13:29.644Z,99630.94
2023-04-02T06:16:34.611Z,99628.53
2023-04-02T06:19:38.778Z,99635.84
2023-04-02T06:22:42.447Z,99634.31
2023-04-02T06:25:56.479Z,99641.09
2023-04-02T06:29:39.737Z,99640.16
2023-04-02T06:32:42.691Z,99647.75
2023-04-02T06:35:48.897Z,99640.03
2023-04-02T06:38:52.649Z,99649.66
2023-04-02T06:42:01.803Z,99659.13
2023-04-02T06:45:05.346Z,99656.75
2023-04-02T06:48:16.280Z,99653.97
2023-04-02T06:51:21.274Z,99660.06
2023-04-02T06:54:24.116Z,99660.34
2023-04-02T06:57:28.536Z,99665.22
2023-04-02T07:00:37.110Z,99672.50
2023-04-02T07:03:40.297Z,99673.00
2023-04-02T07:06:43.102Z,99669.25
2023-04-02T07:09:46.024Z,99682.00
2023-04-02T07:12:50.504Z,99673.09
2023-04-02T07:15:56.783Z,99666.69
2023-04-02T07:19:00.656Z,99688.19
2023-04-02T07:22:03.357Z,99686.19
2023-04-02T07:25:06.702Z,99679.59
2023-04-02T07:28:09.580Z,99685.94
2023-04-02T07:31:23.688Z,99688.06
2023-04-02T07:34:29.505Z,99689.03
2023-04-02T07:37:32.423Z,99680.25
2023-04-02T07:40:35.321Z,99692.91
2023-04-02T07:43:42.351Z,99698.56
2023-04-02T07:46:45.225Z,99691.56
2023-04-02T07:49:47.953Z,99702.78
2023-04-02T07:52:50.985Z,99703.81
2023-04-02T07:55:54.201Z,99705.03
2023-04-02T07:59:00.048Z,99704.63
2023-04-02T08:02:03.074Z,99703.50
2023-04-02T08:05:07.063Z,99709.97
2023-04-02T08:08:09.811Z,99706.72
2023-04-02T08:11:12.696Z,99719.75
2023-04-02T08:14:15.771Z,99719.31
2023-04-02T08:17:18.921Z,99717.06
2023-04-02T08:20:22.922Z,99710.44
2023-04-02T08:23:26.360Z,99703.69
2023-04-02T08:26:29.092Z,99708.12
2023-04-02T08:29:32.644Z,99714.44
2023-04-02T08:32:35.876Z,99701.50
2023-04-02T08:35:39.112Z,99704.91
2023-04-02T08:38:42.650Z,99706.63
2023-04-02T08:42:07.144Z,99722.97
2023-04-02T08:45:32.864Z,99725.13
2023-04-02T08:48:40.796Z,99718.28
2023-04-02T08:51:46.757Z,99731.97
2023-04-02T08:54:50.402Z,99735.25
2023-04-02T08:58:13.860Z,99740.34
2023-04-02T09:01:20.844Z,99733.59
2023-04-02T09:04:25.408Z,99741.56
2023-04-02T09:07:28.795Z,99746.06
2023-04-02T09:10:40.292Z,99747.66
2023-04-02T09:13:49.333Z,99757.87
2023-04-02T09:16:56.552Z,99763.97
2023-04-02T09:20:13.554Z,99763.97
2023-04-02T09:23:22.469Z,99756.03
2023-04-02T09:26:32.338Z,99754.53
2023-04-02T09:29:50.255Z,99760.25
2023-04-02T09:32:58.924Z,99765.41
2023-04-02T09:36:01.834Z,99766.84
2023-04-02T09:39:19.052Z,99765.72
2023-04-02T09:42:36.504Z,99772.87
2023-04-02T09:45:40.398Z,99779.19
2023-04-02T09:49:01.579Z,99784.91
2023-04-02T09:52:11.869Z,99773.37
2023-04-02T09:55:15.634Z,99782.84
2023-04-02T09:58:18.796Z,99785.81
2023-04-02T10:01:39.442Z,99784.59
2023-04-02T10:04:49.959Z,99785.19
2023-04-02T10:07:54.343Z,99787.22
2023-04-02T10:11:00.168Z,99786.97
2023-04-02T10:14:11.205Z,99779.72
2023-04-02T10:17:33.435Z,99778.03
2023-04-02T10:20:48.545Z,99786.66
2023-04-02T10:23:55.279Z,99778.72
2023-04-02T10:27:06.930Z,99775.13
2023-04-02T10:30:21.479Z,99774.75
2023-04-02T10:33:34.718Z,99783.72
2023-04-02T10:36:40.742Z,99782.63
2023-04-02T10:39:44.927Z,99781.25
2023-04-02T10:43:27.581Z,99787.19
2023-04-02T10:46:39.624Z,99782.25
2023-04-02T10:49:50.834Z,99777.72
2023-04-02T10:53:16.486Z,99777.59
2023-04-02T10:56:19.566Z,99774.13
2023-04-02T10:59:23.680Z,99782.13
2023-04-02T11:02:32.202Z,99787.91
2023-04-02T11:05:48.182Z,99785.59
2023-04-02T11:08:58.411Z,99790.56
2023-04-02T11:12:02.232Z,99785.59
2023-04-02T11:15:15.363Z,99792.63
2023-04-02T11:18:39.199Z,99783.28
2023-04-02T11:21:57.889Z,99780.81
2023-04-02T11:25:02.205Z,99783.81
2023-04-02T11:28:27.914Z,99784.69
2023-04-02T11:31:30.824Z,99786.38
2023-04-02T11:34:46.299Z,99780.56
2023-04-02T11:37:49.967Z,99777.19
2023-04-02T11:40:56.912Z,99776.03
2023-04-02T11:44:02.984Z,99777.34
2023-04-02T11:47:35.276Z,99782.34
2023-04-02T11:50:40.722Z,99786.75
2023-04-02T11:53:43.787Z,99780.84
2023-04-02T11:56:55.491Z,99782.16
2023-04-02T12:00:07.044Z,99778.88
2023-04-02T12:03:30.074Z,99778.94
2023-04-02T12:06:47.224Z,99774.69
2023-04-02T12:09:54.053Z,99778.78
2023-04-02T12:12:56.930Z,99771.13
2023-04-02T12:15:59.757Z,99791.94
2023-04-02T12:19:02.786Z,99799.78
2023-04-02T12:22:06.200Z,99789.38
2023-04-02T12:25:21.925Z,99783.06
2023-04-02T12:28:28.943Z,99777.38
2023-04-02T12:31:33.780Z,99775.03
2023-04-02T12:34:36.637Z,99773.22
2023-04-02T12:37:39.551Z,99781.16
2023-04-02T12:40:52.319Z,99789.16
2023-04-02T12:44:21.475Z,99777.63
2023-04-02T12:47:24.495Z,99778.25
2023-04-02T12:50:27.380Z,99786.28
2023-04-02T12:53:34.843Z,99789.69
2023-04-02T12:56:37.706Z,99783.34
2023-04-02T12:59:44.659Z,99787.13
2023-04-02T13:02:52.604Z,99792.66
2023-04-02T13:05:57.196Z,99789.06
2023-04-02T13:09:02.038Z,99799.69
2023-04-02T13:12:05.191Z,99809.47
2023-04-02T13:15:18.854Z,99805.97
2023-04-02T13:18:23.115Z,99805.59
2023-04-02T13:21:30.258Z,99809.66
2023-04-02T13:24:33.984Z,99794.16
2023-04-02T13:27:36.925Z,99812.06
2023-04-02T13:30:40.324Z,99812.81
2023-04-02T13:33:43.550Z,99821.22
2023-04-02T13:36:47.391Z,99839.59
2023-04-02T13:39:50.248Z,99837.38
2023-04-02T13:42:52.991Z,99851.00
2023-04-02T13:45:57.982Z,99854.97
2023-04-02T13:49:01.388Z,99855.66
2023-04-02T13:52:05.566Z,99849.09
2023-04-02T13:55:10.457Z,99850.91
2023-04-02T13:58:13.395Z,99852.91
2023-04-02T14:01:16.239Z,99861.78
2023-04-02T14:04:22.919Z,99856.22
2023-04-02T14:08:05.162Z,99858.09
2023-04-02T14:11:20.200Z,99850.50
2023-04-02T14:14:27.024Z,99853.19
2023-04-02T14:17:47.800Z,99852.28
2023-04-02T14:21:03.913Z,99843.06
2023-04-02T14:24:20.085Z,99848.78
2023-04-02T14:27:29.173Z,99852.56
2023-04-02T14:31:13.063Z,99858.56
2023-04-02T14:34:34.161Z,99862.50
2023-04-02T14:38:05.865Z,99858.09
2023-04-02T14:41:39.796Z,99861.75
2023-04-02T14:44:58.941Z,99854.53
2023-04-02T14:48:07.664Z,99868.38
2023-04-02T14:51:40.970Z,99873.31
2023-04-02T14:54:53.329Z,99866.28
2023-04-02T14:57:56.706Z,99866.31
2023-04-02T15:01:15.565Z,99863.31
2023-04-02T15:04:22.622Z,99875.12
2023-04-02T15:07:29.803Z,99876.03
2023-04-02T15:10:36.277Z,99890.97
2023-04-02T15:13:45.658Z,99880.97
2023-04-02T15:16:48.583Z,99895.16
2023-04-02T15:19:59.598Z,99912.22
2023-04-02T15:23:14.310Z,99915.59
2023-04-02T15:26:47.124Z,99915.94
2023-04-02T15:30:09.180Z,99934.88
2023-04-02T15:33:30.872Z,99934.59
2023-04-02T15:36:36.983Z,99945.94
2023-04-02T15:39:55.697Z,99942.59
2023-04-02T15:43:16.691Z,99948.34
2023-04-02T15:46:23.394Z,99954.25
2023-04-02T15:49:38.475Z,99965.91
2023-04-02T15:52:58.990Z,99972.75
2023-04-02T15:56:26.652Z,99978.13
2023-04-02T15:59:48.067Z,99978.50
2023-04-02T16:03:17.537Z,99994.06
2023-04-02T16:06:29.860Z,100013.09
2023-04-02T16:10:05.149Z,100009.00
2023-04-02T16:13:25.774Z,100031.22
2023-04-02T16:16:33.946Z,100034.09
2023-04-02T16:19:45.352Z,100038.25
2023-04-02T16:23:13.279Z,100048.50
2023-04-02T16:27:02.246Z,100051.94
2023-04-02T16:30:05.896Z,100059.25
2023-04-02T16:33:22.313Z,100072.78
2023-04-02T16:36:28.097Z,100087.56
2023-04-02T16:39:35.194Z,100092.50
2023-04-02T16:42:52.201Z,100095.50
2023-04-02T16:46:13.786Z,100118.37
2023-04-02T16:50:00.515Z,100111.59
2023-04-02T16:53:24.623Z,100116.19
2023-04-02T16:56:56.184Z,100130.91
2023-04-02T17:00:25.275Z,100136.97
2023-04-02T17:04:00.980Z,100147.91
2023-04-02T17:07:15.945Z,100155.13
2023-04-02T17:10:39.924Z,100172.25
2023-04-02T17:13:46.490Z,100172.84
2023-04-02T17:16:53.403Z,100192.16
2023-04-02T17:19:58.479Z,100203.72
2023-04-02T17:23:03.626Z,100211.41
2023-04-02T17:26:09.558Z,100202.25
2023-04-02T17:29:18.135Z,100204.81
2023-04-02T17:32:25.836Z,100209.84
2023-04-02T17:35:33.200Z,100221.47
2023-04-02T17:39:05.974Z,100228.59
2023-04-02T17:42:16.387Z,100230.75
2023-04-02T17:45:25.582Z,100261.56
2023-04-02T17:48:49.014Z,100242.03
2023-04-02T17:52:15.824Z,100247.47
2023-04-02T17:55:41.135Z,100257.16
2023-04-02T17:58:44.290Z,100260.47
2023-04-02T18:01:53.993Z,100266.31
2023-04-02T18:05:25.289Z,100269.78
2023-04-02T18:09:04.748Z,100266.94
2023-04-02T18:12:49.337Z,100280.75
2023-04-02T18:16:34.502Z,100290.44
2023-04-02T18:19:46.523Z,100298.00
2023-04-02T18:23:15.729Z,100308.44
2023-04-02T18:26:28.087Z,100314.25
2023-04-02T18:29:46.174Z,100326.78
2023-04-02T18:33:06.498Z,100326.25
2023-04-02T18:36:21.964Z,100340.31
2023-04-02T18:39:33.472Z,100335.91
2023-04-02T18:42:43.557Z,100347.75
2023-04-02T18:46:13.160Z,100360.97
2023-04-02T18:49:38.075Z,100360.00
2023-04-02T18:52:41.714Z,100358.06
2023-04-02T18:55:56.008Z,100360.16
2023-04-02T18:59:19.542Z,100365.38
2023-04-02T19:02:26.062Z,100366.72
2023-04-02T19:05:35.353Z,100373.06
2023-04-02T19:08:48.305Z,100382.41
2023-04-02T19:11:53.316Z,100381.44
2023-04-02T19:15:00.798Z,100388.91
2023-04-02T19:18:16.538Z,100399.47
2023-04-02T19:21:58.905Z,100398.09
2023-04-02T19:25:20.290Z,100410.34
2023-04-02T19:28:48.431Z,100400.97
2023-04-02T19:31:58.542Z,100408.69
2023-04-02T19:35:17.657Z,100411.84
2023-04-02T19:38:36.311Z,100410.31
2023-04-02T19:41:53.872Z,100426.69
2023-04-02T19:44:57.331Z,100432.72
2023-04-02T19:48:04.182Z,100428.03
2023-04-02T19:51:07.381Z,100440.00
2023-04-02T19:54:11.038Z,100441.13
2023-04-02T19:57:15.883Z,100444.00
2023-04-02T20:00:22.102Z,100447.84
2023-04-02T20:03:27.672Z,100443.84
2023-04-02T20:06:31.871Z,100468.75
2023-04-02T20:09:34.826Z,100469.84
2023-04-02T20:12:37.902Z,100470.53
2023-04-02T20:15:41.709Z,100469.44
2023-04-02T20:18:48.872Z,100473.00
2023-04-02T20:21:52.357Z,100476.31
2023-04-02T20:24:58.318Z,100477.78
2023-04-02T20:28:04.003Z,100466.72
2023-04-02T20:31:09.933Z,100482.56
2023-04-02T20:34:13.077Z,100481.00
2023-04-02T20:37:16.646Z,100468.88
2023-04-02T20:40:19.465Z,100473.25
2023-04-02T20:43:22.839Z,100469.41
2023-04-02T20:46:26.594Z,100476.03
2023-04-02T20:49:29.442Z,100483.69
2023-04-02T20:52:33.451Z,100503.75
2023-04-02T20:55:53.752Z,100504.84
2023-04-02T20:58:56.554Z,100496.56
2023-04-02T21:01:59.337Z,100494.41
2023-04-02T21:05:02.087Z,100497.13
2023-04-02T21:08:05.035Z,100494.66
2023-04-02T21:11:08.848Z,100498.53
2023-04-02T21:14:11.868Z,100503.50
2023-04-02T21:17:16.208Z,100507.97
2023-04-02T21:20:19.050Z,100509.19
2023-04-02T21:23:21.768Z,100509.31
2023-04-02T21:26:24.579Z,100513.44
2023-04-02T21:29:30.221Z,100505.06
2023-04-02T21:32:33.393Z,100491.22
2023-04-02T21:35:36.320Z,100502.56
2023-04-02T21:38:47.600Z,100506.22
2023-04-02T21:41:52.164Z,100506.13
2023-04-02T21:44:56.178Z,100506.44
2023-04-02T21:48:02.083Z,100507.97
2023-04-02T21:51:07.366Z,100512.06
2023-04-02T21:54:10.478Z,100519.19
2023-04-02T21:57:13.577Z,100524.41
2023-04-02T22:00:16.786Z,100521.31
2023-04-02T22:03:29.133Z,100521.97
2023-04-02T22:06:40.894Z,100539.53
2023-04-02T22:09:43.910Z,100536.03
2023-04-02T22:12:46.854Z,100535.91
2023-04-02T22:15:49.694Z,100543.69
2023-04-02T22:18:53.863Z,100534.09
2023-04-02T22:21:57.066Z,100547.66
2023-04-02T22:25:00.825Z,100545.53
2023-04-02T22:28:03.788Z,100546.47
2023-04-02T22:31:19.561Z,100553.84
2023-04-02T22:34:22.508Z,100558.63
2023-04-02T22:37:25.591Z,100564.09
2023-04-02T22:40:29.879Z,100549.72
2023-04-02T22:43:32.924Z,100563.41
2023-04-02T22:46:38.594Z,100566.22
2023-04-02T22:49:41.492Z,100547.16
2023-04-02T22:52:44.832Z,100550.53
2023-04-02T22:55:48.915Z,100557.47
2023-04-02T22:58:51.775Z,100548.50
2023-04-02T23:01:55.109Z,100560.53
2023-04-02T23:04:58.227Z,100560.47
2023-04-02T23:08:01.237Z,100566.37
2023-04-02T23:11:05.611Z,100558.44
2023-04-02T23:14:08.395Z,100558.19
2023-04-02T23:17:11.274Z,100557.03
2023-04-02T23:20:14.055Z,100563.41
2023-04-02T23:23:16.762Z,100567.22
2023-04-02T23:26:22.247Z,100559.88
2023-04-02T23:29:25.027Z,100559.50
2023-04-02T23:32:27.945Z,100564.84
2023-04-02T23:35:30.829Z,100564.09
2023-04-02T23:38:33.632Z,100569.37
2023-04-02T23:41:37.836Z,100566.97
2023-04-02T23:44:40.850Z,100567.41
2023-04-02T23:47:43.736Z,100573.59
2023-04-02T23:50:46.680Z,100574.09
2023-04-02T23:53:50.741Z,100568.75
2023-04-02T23:56:53.425Z,100567.66
2023-04-02T23:59:56.161Z,100569.31
